createdAt,value
2023-06-16T00:00:38.965Z,20.79
2023-06-16T00:03:06.628Z,20.74
2023-06-16T00:05:36.179Z,20.69
2023-06-16T00:08:04.890Z,20.66
2023-06-16T00:10:31.984Z,20.68
2023-06-16T00:12:58.857Z,20.61
2023-06-16T00:15:25.792Z,20.54
2023-06-16T00:17:52.688Z,20.56
2023-06-16T00:20:22.776Z,20.54
2023-06-16T00:22:50.330Z,20.60
2023-06-16T00:25:20.728Z,20.57
2023-06-16T00:27:47.977Z,20.52
2023-06-16T00:30:15.199Z,20.63
2023-06-16T00:32:41.975Z,20.67
2023-06-16T00:35:09.153Z,20.56
2023-06-16T00:37:35.872Z,20.64
2023-06-16T00:40:02.517Z,20.61
2023-06-16T00:42:29.111Z,20.59
2023-06-16T00:44:55.775Z,20.55
2023-06-16T00:47:22.657Z,20.51
2023-06-16T00:49:49.435Z,20.52
2023-06-16T00:52:17.290Z,20.50
2023-06-16T00:54:44.489Z,20.53
2023-06-16T00:57:11.237Z,20.49
2023-06-16T00:59:38.467Z,20.51
2023-06-16T01:02:05.541Z,20.51
2023-06-16T01:04:33.148Z,20.54
2023-06-16T01:07:41.584Z,20.50
2023-06-16T01:10:28.955Z,20.47
2023-06-16T01:13:07.377Z,20.36
2023-06-16T01:15:36.010Z,20.33
2023-06-16T01:18:03.473Z,20.23
2023-06-16T01:20:56.954Z,20.17
2023-06-16T01:24:03.224Z,20.09
2023-06-16T01:26:35.399Z,19.95
2023-06-16T01:29:04.671Z,19.88
2023-06-16T01:31:33.202Z,19.87
2023-06-16T01:34:03.569Z,19.95
2023-06-16T01:36:33.279Z,19.98
2023-06-16T01:39:01.653Z,19.95
2023-06-16T01:41:29.190Z,19.91
2023-06-16T01:43:57.275Z,19.85
2023-06-16T01:46:25.090Z,19.78
2023-06-16T01:48:53.572Z,19.62
2023-06-16T01:51:21.318Z,19.72
2023-06-16T01:53:48.005Z,19.67
2023-06-16T01:56:14.770Z,19.60
2023-06-16T01:58:41.575Z,19.56
2023-06-16T02:01:12.202Z,19.53
2023-06-16T02:03:44.761Z,19.54
2023-06-16T02:06:22.883Z,19.53
2023-06-16T02:08:53.493Z,19.51
2023-06-16T02:11:21.187Z,19.48
2023-06-16T02:13:48.236Z,19.41
2023-06-16T02:16:16.130Z,19.39
2023-06-16T02:18:42.795Z,19.33
2023-06-16T02:21:09.427Z,19.32
2023-06-16T02:23:36.286Z,19.33
2023-06-16T02:26:02.930Z,19.32
2023-06-16T02:28:29.532Z,19.30
2023-06-16T02:30:56.302Z,19.33
2023-06-16T02:33:23.351Z,19.29
2023-06-16T02:35:50.117Z,19.25
2023-06-16T02:38:16.763Z,19.29
2023-06-16T02:40:43.401Z,19.29
2023-06-16T02:43:10.117Z,19.24
2023-06-16T02:45:36.814Z,19.25
2023-06-16T02:48:03.588Z,19.23
2023-06-16T02:50:30.269Z,19.24
2023-06-16T02:52:58.860Z,19.22
2023-06-16T02:55:25.816Z,19.20
2023-06-16T02:57:52.748Z,19.22
2023-06-16T03:00:20.520Z,19.18
2023-06-16T03:02:47.556Z,19.13
2023-06-16T03:05:19.427Z,19.19
2023-06-16T03:07:46.238Z,19.19
2023-06-16T03:10:13.020Z,19.19
2023-06-16T03:12:39.660Z,19.22
2023-06-16T03:15:06.732Z,19.20
2023-06-16T03:17:34.430Z,19.25
2023-06-16T03:20:01.355Z,19.33
2023-06-16T03:22:28.329Z,19.48
2023-06-16T03:24:54.931Z,19.46
2023-06-16T03:27:21.972Z,19.42
2023-06-16T03:29:48.719Z,19.41
2023-06-16T03:32:15.552Z,19.36
2023-06-16T03:34:42.242Z,19.33
2023-06-16T03:37:08.915Z,19.08
2023-06-16T03:39:35.581Z,19.24
2023-06-16T03:42:02.204Z,19.22
2023-06-16T03:44:28.802Z,19.21
2023-06-16T03:46:55.501Z,19.24
2023-06-16T03:49:22.277Z,19.23
2023-06-16T03:51:48.927Z,19.23
2023-06-16T03:54:17.509Z,19.31
2023-06-16T03:56:44.348Z,19.32
2023-06-16T03:59:11.018Z,19.24
2023-06-16T04:01:38.052Z,19.29
2023-06-16T04:04:06.782Z,19.36
2023-06-16T04:06:35.679Z,19.33
2023-06-16T04:09:04.150Z,19.37
2023-06-16T04:11:31.596Z,19.47
2023-06-16T04:13:58.206Z,19.52
2023-06-16T04:16:24.915Z,19.65
2023-06-16T04:18:51.572Z,19.73
2023-06-16T04:21:18.470Z,19.77
2023-06-16T04:23:45.181Z,19.87
2023-06-16T04:26:13.937Z,19.98
2023-06-16T04:28:45.192Z,20.01
2023-06-16T04:31:13.400Z,20.08
2023-06-16T04:33:43.161Z,20.13
2023-06-16T04:36:10.205Z,20.19
2023-06-16T04:38:36.872Z,20.25
2023-06-16T04:41:03.808Z,20.36
2023-06-16T04:43:30.428Z,20.36
2023-06-16T04:45:58.888Z,20.46
2023-06-16T04:48:26.789Z,20.47
2023-06-16T04:50:54.401Z,20.51
2023-06-16T04:53:21.700Z,20.62
2023-06-16T04:55:48.336Z,20.68
2023-06-16T04:58:15.077Z,20.65
2023-06-16T05:00:41.917Z,20.68
2023-06-16T05:03:08.632Z,20.83
2023-06-16T05:05:35.313Z,20.86
2023-06-16T05:08:01.950Z,20.98
2023-06-16T05:10:28.581Z,21.07
2023-06-16T05:12:55.238Z,21.17
2023-06-16T05:15:21.855Z,21.31
2023-06-16T05:17:48.641Z,21.32
2023-06-16T05:20:15.492Z,21.36
2023-06-16T05:22:42.298Z,21.41
2023-06-16T05:25:09.428Z,21.53
2023-06-16T05:27:36.034Z,21.53
2023-06-16T05:30:02.814Z,21.50
2023-06-16T05:32:29.576Z,21.53
2023-06-16T05:34:57.396Z,21.64
2023-06-16T05:37:24.073Z,21.68
2023-06-16T05:39:51.993Z,21.84
2023-06-16T05:42:18.702Z,22.00
2023-06-16T05:44:46.050Z,22.20
2023-06-16T05:47:13.055Z,22.28
2023-06-16T05:49:39.682Z,22.28
2023-06-16T05:52:07.368Z,22.44
2023-06-16T05:54:34.452Z,22.40
2023-06-16T05:57:01.475Z,22.50
2023-06-16T05:59:29.831Z,22.62
2023-06-16T06:01:56.773Z,22.87
2023-06-16T06:04:32.063Z,23.21
2023-06-16T06:06:58.845Z,23.37
2023-06-16T06:09:26.265Z,23.50
2023-06-16T06:11:53.477Z,23.63
2023-06-16T06:14:20.144Z,23.82
2023-06-16T06:16:46.816Z,24.00
2023-06-16T06:19:13.640Z,24.21
2023-06-16T06:21:40.423Z,24.41
2023-06-16T06:24:08.162Z,24.59
2023-06-16T06:26:34.960Z,24.56
2023-06-16T06:29:01.815Z,24.76
2023-06-16T06:31:28.453Z,24.94
2023-06-16T06:33:55.055Z,24.75
2023-06-16T06:36:28.751Z,24.81
2023-06-16T06:38:56.625Z,25.01
2023-06-16T06:41:26.090Z,25.25
2023-06-16T06:43:54.478Z,25.53
2023-06-16T06:46:21.639Z,25.48
2023-06-16T06:48:48.508Z,25.52
2023-06-16T06:51:15.453Z,25.76
2023-06-16T06:53:42.493Z,25.95
2023-06-16T06:56:09.350Z,26.16
2023-06-16T06:58:36.254Z,26.44
2023-06-16T07:01:03.040Z,26.63
2023-06-16T07:03:29.754Z,26.95
2023-06-16T07:05:56.607Z,27.04
2023-06-16T07:08:23.345Z,27.06
2023-06-16T07:10:50.091Z,27.05
2023-06-16T07:13:17.226Z,26.97
2023-06-16T07:15:44.037Z,26.82
2023-06-16T07:18:10.853Z,26.40
2023-06-16T07:20:37.620Z,26.66
2023-06-16T07:23:04.486Z,26.75
2023-06-16T07:25:33.915Z,26.62
2023-06-16T07:28:00.853Z,26.62
2023-06-16T07:30:27.499Z,26.98
2023-06-16T07:32:54.317Z,27.23
2023-06-16T07:35:21.619Z,27.41
2023-06-16T07:37:48.306Z,27.58
2023-06-16T07:40:15.532Z,27.71
2023-06-16T07:42:46.626Z,27.50
2023-06-16T07:45:13.927Z,27.10
2023-06-16T07:47:41.455Z,26.79
2023-06-16T07:50:09.193Z,26.68
2023-06-16T07:52:36.400Z,26.71
2023-06-16T07:55:03.202Z,26.72
2023-06-16T07:57:31.338Z,26.77
2023-06-16T07:59:58.358Z,26.51
2023-06-16T08:02:25.206Z,26.33
2023-06-16T08:04:52.276Z,26.40
2023-06-16T08:07:19.089Z,26.70
2023-06-16T08:09:45.933Z,26.74
2023-06-16T08:12:12.767Z,27.05
2023-06-16T08:14:39.421Z,27.02
2023-06-16T08:17:06.357Z,26.89
2023-06-16T08:19:33.033Z,26.81
2023-06-16T08:22:00.990Z,26.41
2023-06-16T08:24:27.730Z,26.29
2023-06-16T08:26:54.482Z,26.54
2023-06-16T08:29:22.233Z,26.67
2023-06-16T08:31:49.504Z,26.67
2023-06-16T08:34:16.132Z,26.85
2023-06-16T08:36:42.878Z,26.64
2023-06-16T08:39:11.036Z,26.84
2023-06-16T08:41:38.178Z,26.72
2023-06-16T08:44:08.600Z,26.55
2023-06-16T08:46:36.893Z,26.32
2023-06-16T08:49:05.277Z,26.09
2023-06-16T08:51:35.640Z,25.97
2023-06-16T08:54:07.785Z,26.26
2023-06-16T08:56:35.152Z,26.45
2023-06-16T08:59:02.644Z,26.41
2023-06-16T09:01:29.457Z,26.29
2023-06-16T09:03:56.998Z,26.46
2023-06-16T09:06:24.104Z,26.84
2023-06-16T09:08:50.719Z,27.00
2023-06-16T09:11:27.389Z,26.89
2023-06-16T09:13:54.716Z,26.74
2023-06-16T09:16:22.574Z,26.73
2023-06-16T09:18:50.311Z,26.64
2023-06-16T09:21:25.195Z,26.66
2023-06-16T09:23:58.653Z,26.60
2023-06-16T09:26:31.457Z,26.64
2023-06-16T09:28:58.545Z,26.55
2023-06-16T09:31:28.504Z,26.48
2023-06-16T09:34:05.797Z,26.46
2023-06-16T09:36:33.279Z,26.41
2023-06-16T09:38:59.937Z,26.07
2023-06-16T09:41:26.659Z,25.97
2023-06-16T09:43:54.031Z,25.61
2023-06-16T09:46:20.888Z,25.38
2023-06-16T09:48:51.816Z,25.31
2023-06-16T09:51:24.272Z,25.09
2023-06-16T09:53:53.115Z,25.20
2023-06-16T09:56:20.670Z,25.04
2023-06-16T09:58:48.980Z,25.01
2023-06-16T10:01:17.236Z,24.92
2023-06-16T10:03:49.069Z,24.96
2023-06-16T10:06:21.107Z,24.91
2023-06-16T10:08:53.114Z,24.92
2023-06-16T10:11:20.793Z,24.79
2023-06-16T10:13:53.085Z,24.51
2023-06-16T10:16:22.364Z,24.32
2023-06-16T10:18:51.196Z,24.18
2023-06-16T10:21:19.577Z,24.22
2023-06-16T10:23:46.839Z,24.22
2023-06-16T10:26:14.070Z,24.54
2023-06-16T10:28:41.737Z,24.81
2023-06-16T10:31:12.396Z,25.00
2023-06-16T10:33:57.027Z,25.19
2023-06-16T10:36:33.058Z,25.65
2023-06-16T10:39:01.057Z,25.97
2023-06-16T10:41:30.765Z,26.56
2023-06-16T10:44:17.923Z,26.57
2023-06-16T10:46:44.696Z,26.62
2023-06-16T10:49:12.063Z,26.61
2023-06-16T10:51:51.356Z,26.40
2023-06-16T10:54:38.690Z,26.42
2023-06-16T10:59:55.792Z,26.55
2023-06-16T11:02:34.744Z,26.70
2023-06-16T11:05:12.040Z,26.87
2023-06-16T11:07:59.233Z,26.83
2023-06-16T11:10:26.243Z,26.86
2023-06-16T11:12:52.912Z,26.96
2023-06-16T11:15:24.309Z,26.92
2023-06-16T11:17:51.166Z,26.76
2023-06-16T11:20:18.836Z,26.71
2023-06-16T11:22:46.290Z,26.55
2023-06-16T11:25:14.304Z,26.50
2023-06-16T11:27:41.524Z,26.41
2023-06-16T11:30:08.897Z,26.49
2023-06-16T11:32:38.115Z,26.30
2023-06-16T11:35:05.847Z,26.23
2023-06-16T11:37:52.126Z,26.23
2023-06-16T11:40:26.213Z,26.07
2023-06-16T11:43:01.950Z,25.92
2023-06-16T11:45:47.946Z,25.78
2023-06-16T11:48:14.696Z,25.62
2023-06-16T11:50:41.508Z,25.62
2023-06-16T11:53:13.620Z,25.57
2023-06-16T11:55:40.418Z,25.65
2023-06-16T11:58:07.549Z,25.72
2023-06-16T12:00:34.829Z,25.76
2023-06-16T12:03:03.983Z,25.82
2023-06-16T12:05:32.325Z,25.89
2023-06-16T12:07:59.125Z,25.99
2023-06-16T12:10:26.671Z,26.04
2023-06-16T12:12:53.646Z,26.09
2023-06-16T12:15:22.558Z,26.12
2023-06-16T12:17:49.535Z,25.77
2023-06-16T12:20:18.894Z,25.68
2023-06-16T12:22:46.382Z,25.54
2023-06-16T12:25:17.804Z,25.52
2023-06-16T12:27:50.926Z,25.52
2023-06-16T12:30:18.980Z,25.41
2023-06-16T12:32:47.015Z,25.43
2023-06-16T12:35:23.523Z,25.44
2023-06-16T12:37:50.194Z,25.47
2023-06-16T12:40:18.406Z,25.52
2023-06-16T12:42:45.309Z,25.57
2023-06-16T12:45:14.660Z,25.74
2023-06-16T12:47:41.631Z,25.74
2023-06-16T12:50:09.012Z,25.91
2023-06-16T12:52:35.661Z,26.02
2023-06-16T12:55:03.895Z,25.99
2023-06-16T12:57:30.833Z,26.13
2023-06-16T12:59:57.564Z,26.24
2023-06-16T13:02:24.276Z,26.45
2023-06-16T13:04:51.100Z,26.61
2023-06-16T13:07:18.023Z,26.63
2023-06-16T13:09:44.758Z,26.87
2023-06-16T13:12:12.291Z,26.79
2023-06-16T13:14:39.052Z,26.91
2023-06-16T13:17:06.551Z,27.09
2023-06-16T13:19:33.477Z,27.17
2023-06-16T13:22:00.269Z,27.04
2023-06-16T13:24:27.046Z,26.96
2023-06-16T13:26:53.767Z,26.69
2023-06-16T13:29:20.520Z,26.62
2023-06-16T13:31:47.266Z,26.46
2023-06-16T13:34:14.127Z,26.42
2023-06-16T13:36:40.914Z,26.21
2023-06-16T13:39:10.353Z,26.12
2023-06-16T13:41:37.076Z,26.09
2023-06-16T13:44:03.815Z,26.11
2023-06-16T13:46:30.525Z,26.11
2023-06-16T13:48:57.227Z,26.14
2023-06-16T13:51:24.040Z,26.17
2023-06-16T13:53:50.739Z,26.12
2023-06-16T13:56:17.460Z,25.99
2023-06-16T13:58:44.055Z,25.98
2023-06-16T14:01:10.959Z,25.98
2023-06-16T14:03:37.673Z,25.99
2023-06-16T14:06:04.329Z,25.98
2023-06-16T14:08:31.147Z,26.09
2023-06-16T14:10:58.152Z,26.28
2023-06-16T14:13:25.049Z,26.35
2023-06-16T14:15:52.006Z,26.45
2023-06-16T14:18:19.329Z,26.54
2023-06-16T14:20:46.606Z,26.56
2023-06-16T14:23:16.696Z,26.54
2023-06-16T14:25:46.570Z,26.47
2023-06-16T14:28:15.209Z,26.39
2023-06-16T14:30:42.356Z,26.14
2023-06-16T14:33:12.072Z,26.03
2023-06-16T14:35:39.729Z,25.82
2023-06-16T14:38:06.760Z,25.69
2023-06-16T14:40:34.208Z,25.70
2023-06-16T14:43:00.894Z,25.54
2023-06-16T14:45:27.582Z,25.58
2023-06-16T14:47:54.489Z,25.59
2023-06-16T14:50:23.861Z,25.60
2023-06-16T14:52:50.980Z,25.66
2023-06-16T14:55:17.983Z,25.61
2023-06-16T14:57:44.720Z,25.42
2023-06-16T15:00:12.149Z,25.30
2023-06-16T15:02:39.029Z,25.30
2023-06-16T15:05:07.515Z,25.21
2023-06-16T15:07:34.248Z,25.22
2023-06-16T15:10:01.019Z,25.20
2023-06-16T15:12:27.651Z,25.21
2023-06-16T15:14:54.356Z,25.22
2023-06-16T15:17:20.979Z,25.11
2023-06-16T15:19:47.615Z,25.03
2023-06-16T15:22:15.309Z,24.99
2023-06-16T15:24:42.026Z,24.93
2023-06-16T15:27:08.708Z,24.89
2023-06-16T15:29:35.360Z,24.89
2023-06-16T15:32:02.062Z,24.85
2023-06-16T15:34:29.131Z,24.77
2023-06-16T15:36:55.886Z,24.71
2023-06-16T15:39:24.550Z,24.65
2023-06-16T15:41:51.218Z,24.70
2023-06-16T15:44:17.941Z,24.76
2023-06-16T15:46:44.658Z,24.82
2023-06-16T15:49:11.373Z,24.79
2023-06-16T15:51:39.437Z,24.76
2023-06-16T15:54:06.259Z,24.72
2023-06-16T15:56:33.220Z,24.78
2023-06-16T15:58:59.862Z,24.75
2023-06-16T16:01:26.658Z,24.71
2023-06-16T16:03:53.544Z,24.66
2023-06-16T16:06:20.401Z,24.66
2023-06-16T16:08:47.010Z,24.69
2023-06-16T16:11:13.702Z,24.64
2023-06-16T16:13:40.718Z,24.68
2023-06-16T16:16:07.433Z,24.71
2023-06-16T16:18:34.079Z,24.59
2023-06-16T16:21:03.112Z,24.53
2023-06-16T16:23:30.522Z,24.57
2023-06-16T16:25:57.141Z,24.56
2023-06-16T16:28:24.188Z,24.56
2023-06-16T16:30:51.083Z,24.55
2023-06-16T16:33:18.001Z,24.60
2023-06-16T16:35:46.343Z,24.54
2023-06-16T16:38:13.763Z,24.41
2023-06-16T16:40:40.387Z,24.41
2023-06-16T16:43:09.715Z,24.41
2023-06-16T16:45:36.922Z,24.28
2023-06-16T16:48:03.927Z,24.40
2023-06-16T16:50:30.668Z,24.41
2023-06-16T16:52:57.307Z,24.42
2023-06-16T16:55:35.647Z,24.49
2023-06-16T16:58:03.477Z,24.47
2023-06-16T17:00:30.141Z,24.44
2023-06-16T17:02:57.028Z,24.35
2023-06-16T17:05:24.027Z,24.35
2023-06-16T17:07:50.857Z,24.23
2023-06-16T17:10:18.092Z,24.20
2023-06-16T17:12:45.022Z,24.11
2023-06-16T17:15:11.696Z,24.08
2023-06-16T17:17:38.407Z,24.00
2023-06-16T17:20:05.704Z,23.89
2023-06-16T17:22:32.431Z,23.88
2023-06-16T17:24:59.156Z,23.86
2023-06-16T17:27:25.934Z,23.85
2023-06-16T17:29:52.629Z,23.82
2023-06-16T17:32:19.327Z,23.77
2023-06-16T17:34:45.972Z,23.76
2023-06-16T17:37:12.633Z,23.74
2023-06-16T17:39:39.312Z,23.65
2023-06-16T17:42:06.120Z,23.52
2023-06-16T17:44:32.751Z,23.58
2023-06-16T17:47:01.388Z,23.48
2023-06-16T17:49:28.225Z,23.45
2023-06-16T17:51:55.014Z,23.46
2023-06-16T17:54:21.696Z,23.39
2023-06-16T17:56:48.459Z,23.35
2023-06-16T17:59:15.183Z,23.35
2023-06-16T18:01:43.182Z,23.30
2023-06-16T18:04:10.129Z,23.21
2023-06-16T18:06:36.995Z,23.14
2023-06-16T18:09:03.951Z,23.10
2023-06-16T18:11:30.718Z,23.05
2023-06-16T18:13:57.472Z,23.04
2023-06-16T18:16:24.451Z,23.00
2023-06-16T18:18:51.600Z,23.02
2023-06-16T18:21:18.718Z,22.98
2023-06-16T18:23:45.532Z,22.93
2023-06-16T18:26:12.288Z,22.96
2023-06-16T18:28:39.012Z,22.94
2023-06-16T18:31:06.573Z,22.83
2023-06-16T18:33:33.364Z,22.82
2023-06-16T18:36:00.003Z,22.88
2023-06-16T18:38:26.645Z,23.00
2023-06-16T18:40:53.277Z,22.96
2023-06-16T18:43:25.527Z,22.87
2023-06-16T18:45:53.911Z,22.82
2023-06-16T18:48:21.038Z,22.78
2023-06-16T18:50:47.818Z,22.70
2023-06-16T18:53:14.714Z,22.68
2023-06-16T18:55:44.892Z,22.62
2023-06-16T18:58:11.860Z,22.65
2023-06-16T19:00:38.714Z,22.61
2023-06-16T19:03:06.103Z,22.54
2023-06-16T19:05:33.504Z,22.45
2023-06-16T19:08:00.972Z,22.50
2023-06-16T19:10:27.907Z,22.48
2023-06-16T19:12:54.672Z,22.43
2023-06-16T19:15:21.458Z,22.44
2023-06-16T19:17:48.518Z,22.43
2023-06-16T19:20:16.310Z,22.39
2023-06-16T19:22:43.916Z,22.34
2023-06-16T19:25:12.136Z,22.39
2023-06-16T19:27:39.026Z,22.24
2023-06-16T19:30:07.436Z,22.21
2023-06-16T19:32:34.756Z,22.16
2023-06-16T19:35:02.010Z,22.18
2023-06-16T19:37:31.765Z,22.14
2023-06-16T19:39:58.962Z,22.20
2023-06-16T19:42:25.729Z,22.11
2023-06-16T19:44:52.330Z,22.06
2023-06-16T19:47:19.139Z,21.94
2023-06-16T19:49:46.103Z,21.86
2023-06-16T19:52:12.787Z,21.75
2023-06-16T19:54:39.570Z,21.57
2023-06-16T19:57:06.368Z,21.47
2023-06-16T19:59:33.067Z,21.35
2023-06-16T20:01:59.939Z,21.18
2023-06-16T20:04:26.635Z,21.07
2023-06-16T20:06:53.577Z,20.95
2023-06-16T20:09:20.340Z,20.86
2023-06-16T20:11:46.932Z,20.73
2023-06-16T20:14:13.572Z,20.74
2023-06-16T20:16:40.340Z,20.74
2023-06-16T20:19:07.065Z,20.64
2023-06-16T20:21:33.754Z,20.55
2023-06-16T20:24:00.643Z,20.50
2023-06-16T20:26:27.552Z,20.49
2023-06-16T20:28:54.217Z,20.47
2023-06-16T20:31:21.016Z,20.46
2023-06-16T20:33:48.866Z,20.40
2023-06-16T20:36:15.514Z,20.32
2023-06-16T20:38:42.413Z,20.24
2023-06-16T20:41:09.068Z,20.19
2023-06-16T20:43:35.854Z,20.20
2023-06-16T20:46:03.298Z,20.08
2023-06-16T20:48:30.948Z,20.02
2023-06-16T20:50:57.934Z,20.04
2023-06-16T20:53:24.666Z,20.03
2023-06-16T20:55:51.442Z,19.98
2023-06-16T20:58:20.136Z,19.91
2023-06-16T21:00:48.244Z,19.93
2023-06-16T21:03:15.070Z,19.89
2023-06-16T21:05:43.454Z,19.89
2023-06-16T21:08:10.721Z,19.87
2023-06-16T21:10:37.467Z,19.83
2023-06-16T21:13:04.189Z,19.82
2023-06-16T21:15:32.027Z,19.84
2023-06-16T21:18:00.944Z,19.84
2023-06-16T21:20:27.873Z,19.86
2023-06-16T21:22:54.567Z,19.85
2023-06-16T21:25:21.218Z,19.87
2023-06-16T21:27:47.875Z,19.90
2023-06-16T21:30:14.739Z,19.86
2023-06-16T21:32:41.879Z,19.86
2023-06-16T21:35:09.484Z,19.90
2023-06-16T21:37:36.621Z,19.92
2023-06-16T21:40:16.957Z,19.89
2023-06-16T21:42:44.497Z,19.96
2023-06-16T21:45:15.331Z,19.93
2023-06-16T21:47:42.189Z,19.89
2023-06-16T21:50:09.429Z,19.86
2023-06-16T21:52:37.171Z,19.81
2023-06-16T21:55:04.755Z,19.90
2023-06-16T21:57:32.196Z,19.86
2023-06-16T21:59:59.885Z,19.81
2023-06-16T22:02:27.394Z,19.92
2023-06-16T22:04:54.641Z,19.95
2023-06-16T22:07:22.106Z,19.99
2023-06-16T22:09:52.083Z,19.95
2023-06-16T22:12:19.791Z,19.98
2023-06-16T22:14:46.763Z,19.95
2023-06-16T22:17:14.886Z,20.02
2023-06-16T22:19:43.031Z,19.99
2023-06-16T22:22:11.127Z,20.03
2023-06-16T22:24:42.533Z,20.06
2023-06-16T22:27:21.167Z,20.04
2023-06-16T22:29:49.506Z,20.03
2023-06-16T22:32:16.272Z,20.08
2023-06-16T22:34:42.998Z,20.04
2023-06-16T22:37:12.091Z,20.02
2023-06-16T22:39:40.811Z,20.01
2023-06-16T22:42:07.653Z,20.00
2023-06-16T22:44:34.322Z,19.96
2023-06-16T22:47:02.737Z,19.97
2023-06-16T22:49:30.023Z,19.99
2023-06-16T22:51:58.359Z,19.95
2023-06-16T22:54:26.641Z,19.95
2023-06-16T22:56:53.783Z,19.97
2023-06-16T22:59:20.716Z,19.93
2023-06-16T23:01:47.869Z,19.97
2023-06-16T23:04:14.976Z,19.99
2023-06-16T23:06:42.151Z,19.98
2023-06-16T23:09:09.550Z,19.98
2023-06-16T23:11:36.526Z,19.97
2023-06-16T23:14:03.678Z,19.98
2023-06-16T23:16:31.039Z,20.01
2023-06-16T23:18:57.850Z,19.98
2023-06-16T23:21:25.468Z,19.98
2023-06-16T23:23:54.991Z,20.01
2023-06-16T23:26:23.677Z,19.99
2023-06-16T23:28:50.939Z,20.01
2023-06-16T23:31:19.980Z,20.02
2023-06-16T23:33:48.369Z,20.00
2023-06-16T23:36:19.450Z,20.03
2023-06-16T23:38:46.295Z,20.04
2023-06-16T23:41:13.488Z,20.06
2023-06-16T23:43:40.095Z,20.07
2023-06-16T23:46:06.857Z,20.01
2023-06-16T23:48:33.487Z,20.06
2023-06-16T23:51:00.138Z,19.98
2023-06-16T23:53:27.031Z,19.94
2023-06-16T23:55:53.633Z,19.97
2023-06-16T23:58:20.500Z,19.98
